sensor_id;sensor_type;location;lat;lon;timestamp;temperature;humidity
20400;DHT22;10359;53.596;22.520;2023-03-23T00:02:45;9.40;1.00
20400;DHT22;10359;53.596;22.520;2023-03-23T00:05:37;9.40;1.00
20400;DHT22;10359;53.596;22.520;2023-03-23T00:08:37;9.40;1.00
20400;DHT22;10359;53.596;22.520;2023-03-23T00:11:33;9.40;1.00
20400;DHT22;10359;53.596;22.520;2023-03-23T00:14:23;9.40;1.00
20400;DHT22;10359;53.596;22.520;2023-03-23T00:17:12;9.40;1.00
20400;DHT22;10359;53.596;22.520;2023-03-23T00:20:01;9.50;1.00
20400;DHT22;10359;53.596;22.520;2023-03-23T00:22:55;9.50;1.00
20400;DHT22;10359;53.596;22.520;2023-03-23T00:25:47;9.50;1.00
20400;DHT22;10359;53.596;22.520;2023-03-23T00:28:39;9.40;1.00
20400;DHT22;10359;53.596;22.520;2023-03-23T00:31:28;9.40;1.00
20400;DHT22;10359;53.596;22.520;2023-03-23T00:34:21;9.40;1.00
20400;DHT22;10359;53.596;22.520;2023-03-23T00:37:11;9.50;1.00
20400;DHT22;10359;53.596;22.520;2023-03-23T00:40:05;9.50;1.00
20400;DHT22;10359;53.596;22.520;2023-03-23T00:42:59;9.50;1.00
20400;DHT22;10359;53.596;22.520;2023-03-23T00:45:50;9.30;1.00
20400;DHT22;10359;53.596;22.520;2023-03-23T00:48:39;9.20;1.00
20400;DHT22;10359;53.596;22.520;2023-03-23T00:51:31;9.10;1.00
20400;DHT22;10359;53.596;22.520;2023-03-23T00:54:20;9.00;1.00
20400;DHT22;10359;53.596;22.520;2023-03-23T00:57:11;8.90;1.00
20400;DHT22;10359;53.596;22.520;2023-03-23T01:00:00;8.80;1.00
20400;DHT22;10359;53.596;22.520;2023-03-23T01:02:50;8.80;1.00
20400;DHT22;10359;53.596;22.520;2023-03-23T01:05:44;8.70;1.00
20400;DHT22;10359;53.596;22.520;2023-03-23T01:08:40;8.60;1.00
20400;DHT22;10359;53.596;22.520;2023-03-23T01:11:32;8.60;1.00
20400;DHT22;10359;53.596;22.520;2023-03-23T01:14:23;8.50;1.00
20400;DHT22;10359;53.596;22.520;2023-03-23T01:17:12;8.40;1.00
20400;DHT22;10359;53.596;22.520;2023-03-23T01:20:00;8.30;1.00
20400;DHT22;10359;53.596;22.520;2023-03-23T01:22:50;8.20;1.00
20400;DHT22;10359;53.596;22.520;2023-03-23T01:25:39;8.20;1.00
20400;DHT22;10359;53.596;22.520;2023-03-23T01:28:29;8.10;1.00
20400;DHT22;10359;53.596;22.520;2023-03-23T01:31:21;8.00;1.00
20400;DHT22;10359;53.596;22.520;2023-03-23T01:34:10;8.00;1.00
20400;DHT22;10359;53.596;22.520;2023-03-23T01:36:59;8.00;1.00
20400;DHT22;10359;53.596;22.520;2023-03-23T01:39:48;8.00;1.00
20400;DHT22;10359;53.596;22.520;2023-03-23T01:42:38;8.00;1.00
20400;DHT22;10359;53.596;22.520;2023-03-23T01:45:31;8.10;1.00
20400;DHT22;10359;53.596;22.520;2023-03-23T01:48:26;8.10;1.00
20400;DHT22;10359;53.596;22.520;2023-03-23T01:51:17;8.20;1.00
20400;DHT22;10359;53.596;22.520;2023-03-23T01:54:11;8.30;1.00
20400;DHT22;10359;53.596;22.520;2023-03-23T01:57:09;8.30;1.00
20400;DHT22;10359;53.596;22.520;2023-03-23T02:00:00;8.40;1.00
20400;DHT22;10359;53.596;22.520;2023-03-23T02:02:55;8.50;1.00
20400;DHT22;10359;53.596;22.520;2023-03-23T02:05:45;8.50;1.00
20400;DHT22;10359;53.596;22.520;2023-03-23T02:08:34;8.60;1.00
20400;DHT22;10359;53.596;22.520;2023-03-23T02:11:24;8.60;1.00
20400;DHT22;10359;53.596;22.520;2023-03-23T02:14:26;8.50;1.00
20400;DHT22;10359;53.596;22.520;2023-03-23T02:17:21;8.60;1.00
20400;DHT22;10359;53.596;22.520;2023-03-23T02:20:19;8.60;1.00
20400;DHT22;10359;53.596;22.520;2023-03-23T02:23:49;8.70;1.00
20400;DHT22;10359;53.596;22.520;2023-03-23T02:26:47;8.70;1.00
20400;DHT22;10359;53.596;22.520;2023-03-23T02:30:01;8.80;1.00
20400;DHT22;10359;53.596;22.520;2023-03-23T02:36:32;8.90;1.00
20400;DHT22;10359;53.596;22.520;2023-03-23T02:39:24;8.80;1.00
20400;DHT22;10359;53.596;22.520;2023-03-23T02:42:16;8.90;1.00
20400;DHT22;10359;53.596;22.520;2023-03-23T02:45:08;8.90;1.00
20400;DHT22;10359;53.596;22.520;2023-03-23T02:47:59;8.90;1.00
20400;DHT22;10359;53.596;22.520;2023-03-23T02:50:51;8.90;1.00
20400;DHT22;10359;53.596;22.520;2023-03-23T02:53:43;8.90;1.00
20400;DHT22;10359;53.596;22.520;2023-03-23T02:56:33;9.00;1.00
20400;DHT22;10359;53.596;22.520;2023-03-23T02:59:22;9.00;1.00
20400;DHT22;10359;53.596;22.520;2023-03-23T03:02:13;9.10;1.00
20400;DHT22;10359;53.596;22.520;2023-03-23T03:05:08;9.10;1.00
20400;DHT22;10359;53.596;22.520;2023-03-23T03:08:12;9.10;1.00
20400;DHT22;10359;53.596;22.520;2023-03-23T03:11:09;9.10;1.00
20400;DHT22;10359;53.596;22.520;2023-03-23T03:14:00;9.10;1.00
20400;DHT22;10359;53.596;22.520;2023-03-23T03:16:53;9.00;1.00
20400;DHT22;10359;53.596;22.520;2023-03-23T03:19:47;9.10;1.00
20400;DHT22;10359;53.596;22.520;2023-03-23T03:22:39;9.10;1.00
20400;DHT22;10359;53.596;22.520;2023-03-23T03:25:29;9.10;1.00
20400;DHT22;10359;53.596;22.520;2023-03-23T03:28:21;9.10;1.00
20400;DHT22;10359;53.596;22.520;2023-03-23T03:31:11;9.20;1.00
20400;DHT22;10359;53.596;22.520;2023-03-23T03:34:00;9.20;1.00
20400;DHT22;10359;53.596;22.520;2023-03-23T03:36:50;9.20;1.00
20400;DHT22;10359;53.596;22.520;2023-03-23T03:39:39;9.10;1.00
20400;DHT22;10359;53.596;22.520;2023-03-23T03:42:28;9.10;1.00
20400;DHT22;10359;53.596;22.520;2023-03-23T03:45:21;9.00;1.00
20400;DHT22;10359;53.596;22.520;2023-03-23T03:48:10;9.00;1.00
20400;DHT22;10359;53.596;22.520;2023-03-23T03:51:01;9.00;1.00
20400;DHT22;10359;53.596;22.520;2023-03-23T03:53:50;8.90;1.00
20400;DHT22;10359;53.596;22.520;2023-03-23T03:56:39;8.90;1.00
20400;DHT22;10359;53.596;22.520;2023-03-23T03:59:28;8.90;1.00
20400;DHT22;10359;53.596;22.520;2023-03-23T04:02:19;8.90;1.00
20400;DHT22;10359;53.596;22.520;2023-03-23T04:05:13;8.90;1.00
20400;DHT22;10359;53.596;22.520;2023-03-23T04:08:02;8.80;1.00
20400;DHT22;10359;53.596;22.520;2023-03-23T04:10:51;8.80;1.00
20400;DHT22;10359;53.596;22.520;2023-03-23T04:13:40;8.70;1.00
20400;DHT22;10359;53.596;22.520;2023-03-23T04:16:29;8.60;1.00
20400;DHT22;10359;53.596;22.520;2023-03-23T04:19:22;8.60;1.00
20400;DHT22;10359;53.596;22.520;2023-03-23T04:22:10;8.50;1.00
20400;DHT22;10359;53.596;22.520;2023-03-23T04:25:00;8.60;1.00
20400;DHT22;10359;53.596;22.520;2023-03-23T04:27:53;8.60;1.00
20400;DHT22;10359;53.596;22.520;2023-03-23T04:30:42;8.70;1.00
20400;DHT22;10359;53.596;22.520;2023-03-23T04:33:31;8.70;1.00
20400;DHT22;10359;53.596;22.520;2023-03-23T04:36:21;8.80;1.00
20400;DHT22;10359;53.596;22.520;2023-03-23T04:39:13;8.80;1.00
20400;DHT22;10359;53.596;22.520;2023-03-23T04:42:04;8.80;1.00
20400;DHT22;10359;53.596;22.520;2023-03-23T04:44:52;8.90;1.00
20400;DHT22;10359;53.596;22.520;2023-03-23T04:47:42;8.90;1.00
20400;DHT22;10359;53.596;22.520;2023-03-23T04:50:39;8.90;1.00
20400;DHT22;10359;53.596;22.520;2023-03-23T04:53:30;9.00;1.00
20400;DHT22;10359;53.596;22.520;2023-03-23T04:56:19;9.00;1.00
20400;DHT22;10359;53.596;22.520;2023-03-23T04:59:08;9.10;1.00
20400;DHT22;10359;53.596;22.520;2023-03-23T05:01:57;9.10;1.00
20400;DHT22;10359;53.596;22.520;2023-03-23T05:04:46;9.20;1.00
20400;DHT22;10359;53.596;22.520;2023-03-23T05:07:36;9.30;1.00
20400;DHT22;10359;53.596;22.520;2023-03-23T05:10:28;9.30;1.00
20400;DHT22;10359;53.596;22.520;2023-03-23T05:13:16;9.30;1.00
20400;DHT22;10359;53.596;22.520;2023-03-23T05:16:06;9.40;1.00
20400;DHT22;10359;53.596;22.520;2023-03-23T05:18:55;9.40;1.00
20400;DHT22;10359;53.596;22.520;2023-03-23T05:21:48;9.40;1.00
20400;DHT22;10359;53.596;22.520;2023-03-23T05:24:36;9.50;1.00
20400;DHT22;10359;53.596;22.520;2023-03-23T05:27:28;9.50;1.00
20400;DHT22;10359;53.596;22.520;2023-03-23T05:30:17;9.60;1.00
20400;DHT22;10359;53.596;22.520;2023-03-23T05:33:07;9.70;1.00
20400;DHT22;10359;53.596;22.520;2023-03-23T05:35:56;9.70;1.00
20400;DHT22;10359;53.596;22.520;2023-03-23T05:38:45;9.90;1.00
20400;DHT22;10359;53.596;22.520;2023-03-23T05:41:34;10.00;1.00
20400;DHT22;10359;53.596;22.520;2023-03-23T05:44:25;10.00;1.00
20400;DHT22;10359;53.596;22.520;2023-03-23T05:47:14;10.10;1.00
20400;DHT22;10359;53.596;22.520;2023-03-23T05:50:06;10.20;1.00
20400;DHT22;10359;53.596;22.520;2023-03-23T05:52:56;10.10;1.00
20400;DHT22;10359;53.596;22.520;2023-03-23T05:55:44;10.20;1.00
20400;DHT22;10359;53.596;22.520;2023-03-23T05:58:33;10.20;1.00
20400;DHT22;10359;53.596;22.520;2023-03-23T06:01:23;10.10;1.00
20400;DHT22;10359;53.596;22.520;2023-03-23T06:04:11;10.10;1.00
20400;DHT22;10359;53.596;22.520;2023-03-23T06:07:01;10.20;1.00
20400;DHT22;10359;53.596;22.520;2023-03-23T06:09:51;10.30;1.00
20400;DHT22;10359;53.596;22.520;2023-03-23T06:12:41;10.30;1.00
20400;DHT22;10359;53.596;22.520;2023-03-23T06:15:31;10.40;1.00
20400;DHT22;10359;53.596;22.520;2023-03-23T06:18:21;10.50;1.00
20400;DHT22;10359;53.596;22.520;2023-03-23T06:21:10;10.70;1.00
20400;DHT22;10359;53.596;22.520;2023-03-23T06:23:58;10.70;1.00
20400;DHT22;10359;53.596;22.520;2023-03-23T06:26:47;10.70;1.00
20400;DHT22;10359;53.596;22.520;2023-03-23T06:29:36;10.80;1.00
20400;DHT22;10359;53.596;22.520;2023-03-23T06:32:30;10.90;1.00
20400;DHT22;10359;53.596;22.520;2023-03-23T06:35:21;10.80;1.00
20400;DHT22;10359;53.596;22.520;2023-03-23T06:38:13;11.10;1.00
20400;DHT22;10359;53.596;22.520;2023-03-23T06:41:01;11.20;1.00
20400;DHT22;10359;53.596;22.520;2023-03-23T06:43:49;11.40;1.00
20400;DHT22;10359;53.596;22.520;2023-03-23T06:46:40;11.70;1.00
20400;DHT22;10359;53.596;22.520;2023-03-23T06:49:29;11.90;99.90
20400;DHT22;10359;53.596;22.520;2023-03-23T06:52:20;12.20;99.90
20400;DHT22;10359;53.596;22.520;2023-03-23T06:55:09;12.20;99.90
20400;DHT22;10359;53.596;22.520;2023-03-23T06:57:57;12.40;99.90
20400;DHT22;10359;53.596;22.520;2023-03-23T07:00:48;12.40;99.90
20400;DHT22;10359;53.596;22.520;2023-03-23T07:03:36;12.60;99.90
20400;DHT22;10359;53.596;22.520;2023-03-23T07:06:25;12.60;99.90
20400;DHT22;10359;53.596;22.520;2023-03-23T07:09:17;12.70;99.90
20400;DHT22;10359;53.596;22.520;2023-03-23T07:12:06;12.70;99.90
20400;DHT22;10359;53.596;22.520;2023-03-23T07:15:00;12.70;99.90
20400;DHT22;10359;53.596;22.520;2023-03-23T07:17:49;12.80;99.90
20400;DHT22;10359;53.596;22.520;2023-03-23T07:20:37;12.70;99.90
20400;DHT22;10359;53.596;22.520;2023-03-23T07:23:29;12.60;99.90
20400;DHT22;10359;53.596;22.520;2023-03-23T07:26:20;12.80;99.90
20400;DHT22;10359;53.596;22.520;2023-03-23T07:29:09;13.00;99.90
20400;DHT22;10359;53.596;22.520;2023-03-23T07:32:00;13.00;99.90
20400;DHT22;10359;53.596;22.520;2023-03-23T07:34:49;13.00;99.90
20400;DHT22;10359;53.596;22.520;2023-03-23T07:37:38;12.70;99.90
20400;DHT22;10359;53.596;22.520;2023-03-23T07:40:27;12.60;99.90
20400;DHT22;10359;53.596;22.520;2023-03-23T07:43:23;12.40;99.90
20400;DHT22;10359;53.596;22.520;2023-03-23T07:46:13;12.30;99.90
20400;DHT22;10359;53.596;22.520;2023-03-23T07:49:03;12.20;99.90
20400;DHT22;10359;53.596;22.520;2023-03-23T07:51:58;12.20;99.90
20400;DHT22;10359;53.596;22.520;2023-03-23T07:54:49;12.30;99.90
20400;DHT22;10359;53.596;22.520;2023-03-23T07:57:38;12.20;99.90
20400;DHT22;10359;53.596;22.520;2023-03-23T08:00:30;12.10;99.90
20400;DHT22;10359;53.596;22.520;2023-03-23T08:03:22;12.00;99.90
20400;DHT22;10359;53.596;22.520;2023-03-23T08:06:10;12.00;99.90
20400;DHT22;10359;53.596;22.520;2023-03-23T08:09:00;12.00;99.90
20400;DHT22;10359;53.596;22.520;2023-03-23T08:11:56;12.00;99.90
20400;DHT22;10359;53.596;22.520;2023-03-23T08:14:45;12.10;99.90
20400;DHT22;10359;53.596;22.520;2023-03-23T08:17:39;12.30;99.90
20400;DHT22;10359;53.596;22.520;2023-03-23T08:20:28;12.40;99.90
20400;DHT22;10359;53.596;22.520;2023-03-23T08:23:18;12.60;99.90
20400;DHT22;10359;53.596;22.520;2023-03-23T08:26:12;12.90;99.90
20400;DHT22;10359;53.596;22.520;2023-03-23T08:29:01;13.00;99.90
20400;DHT22;10359;53.596;22.520;2023-03-23T08:31:50;13.20;99.90
20400;DHT22;10359;53.596;22.520;2023-03-23T08:34:41;13.70;99.90
20400;DHT22;10359;53.596;22.520;2023-03-23T08:37:30;14.10;99.90
20400;DHT22;10359;53.596;22.520;2023-03-23T08:40:21;14.50;99.90
20400;DHT22;10359;53.596;22.520;2023-03-23T08:43:13;14.90;99.90
20400;DHT22;10359;53.596;22.520;2023-03-23T08:46:02;15.10;99.90
20400;DHT22;10359;53.596;22.520;2023-03-23T08:48:56;15.40;99.90
20400;DHT22;10359;53.596;22.520;2023-03-23T08:51:56;15.90;99.90
20400;DHT22;10359;53.596;22.520;2023-03-23T08:54:49;16.30;99.90
20400;DHT22;10359;53.596;22.520;2023-03-23T08:57:49;16.40;99.90
20400;DHT22;10359;53.596;22.520;2023-03-23T09:00:40;16.80;99.90
20400;DHT22;10359;53.596;22.520;2023-03-23T09:03:35;17.10;99.90
20400;DHT22;10359;53.596;22.520;2023-03-23T09:06:28;17.20;99.90
20400;DHT22;10359;53.596;22.520;2023-03-23T09:09:24;17.20;99.90
20400;DHT22;10359;53.596;22.520;2023-03-23T09:12:13;17.00;99.90
20400;DHT22;10359;53.596;22.520;2023-03-23T09:15:05;16.90;99.90
20400;DHT22;10359;53.596;22.520;2023-03-23T09:17:55;16.80;99.90
20400;DHT22;10359;53.596;22.520;2023-03-23T09:20:45;17.00;99.90
20400;DHT22;10359;53.596;22.520;2023-03-23T09:23:33;17.20;99.90
20400;DHT22;10359;53.596;22.520;2023-03-23T09:26:24;17.40;99.90
20400;DHT22;10359;53.596;22.520;2023-03-23T09:29:12;17.50;99.90
20400;DHT22;10359;53.596;22.520;2023-03-23T09:32:06;17.80;99.90
20400;DHT22;10359;53.596;22.520;2023-03-23T09:34:55;17.80;99.90
20400;DHT22;10359;53.596;22.520;2023-03-23T09:37:44;17.50;99.90
20400;DHT22;10359;53.596;22.520;2023-03-23T09:40:45;17.30;99.90
20400;DHT22;10359;53.596;22.520;2023-03-23T09:43:58;17.40;99.90
20400;DHT22;10359;53.596;22.520;2023-03-23T09:46:56;18.00;99.90
20400;DHT22;10359;53.596;22.520;2023-03-23T09:49:52;18.70;99.90
20400;DHT22;10359;53.596;22.520;2023-03-23T09:52:45;18.80;99.90
20400;DHT22;10359;53.596;22.520;2023-03-23T09:55:35;19.10;99.90
20400;DHT22;10359;53.596;22.520;2023-03-23T09:58:26;18.70;99.90
20400;DHT22;10359;53.596;22.520;2023-03-23T10:01:23;18.20;99.90
20400;DHT22;10359;53.596;22.520;2023-03-23T10:04:21;18.30;99.90
20400;DHT22;10359;53.596;22.520;2023-03-23T10:07:13;18.30;99.90
20400;DHT22;10359;53.596;22.520;2023-03-23T10:10:02;18.70;99.90
20400;DHT22;10359;53.596;22.520;2023-03-23T10:12:58;18.80;99.90
20400;DHT22;10359;53.596;22.520;2023-03-23T10:15:53;19.10;99.90
20400;DHT22;10359;53.596;22.520;2023-03-23T10:18:49;19.20;99.90
20400;DHT22;10359;53.596;22.520;2023-03-23T10:21:44;19.70;99.90
20400;DHT22;10359;53.596;22.520;2023-03-23T10:24:35;19.70;99.90
20400;DHT22;10359;53.596;22.520;2023-03-23T10:27:44;19.30;99.90
20400;DHT22;10359;53.596;22.520;2023-03-23T10:30:36;19.10;99.90
20400;DHT22;10359;53.596;22.520;2023-03-23T10:33:30;19.20;99.90
20400;DHT22;10359;53.596;22.520;2023-03-23T10:36:27;18.70;99.90
20400;DHT22;10359;53.596;22.520;2023-03-23T10:39:20;18.70;99.90
20400;DHT22;10359;53.596;22.520;2023-03-23T10:42:26;18.90;99.90
20400;DHT22;10359;53.596;22.520;2023-03-23T10:45:17;18.40;99.90
20400;DHT22;10359;53.596;22.520;2023-03-23T10:48:16;18.30;99.90
20400;DHT22;10359;53.596;22.520;2023-03-23T10:51:10;18.70;99.90
20400;DHT22;10359;53.596;22.520;2023-03-23T10:54:01;18.50;99.90
20400;DHT22;10359;53.596;22.520;2023-03-23T10:56:50;18.60;99.90
20400;DHT22;10359;53.596;22.520;2023-03-23T10:59:40;19.00;99.90
20400;DHT22;10359;53.596;22.520;2023-03-23T11:02:32;19.00;99.90
20400;DHT22;10359;53.596;22.520;2023-03-23T11:05:25;19.30;99.90
20400;DHT22;10359;53.596;22.520;2023-03-23T11:08:16;19.10;99.90
20400;DHT22;10359;53.596;22.520;2023-03-23T11:11:15;19.10;99.90
20400;DHT22;10359;53.596;22.520;2023-03-23T11:14:15;18.90;99.90
20400;DHT22;10359;53.596;22.520;2023-03-23T11:17:21;19.00;99.90
20400;DHT22;10359;53.596;22.520;2023-03-23T11:20:12;19.00;99.90
20400;DHT22;10359;53.596;22.520;2023-03-23T11:23:11;18.80;99.90
20400;DHT22;10359;53.596;22.520;2023-03-23T11:26:14;18.50;99.90
20400;DHT22;10359;53.596;22.520;2023-03-23T11:29:05;18.40;99.90
20400;DHT22;10359;53.596;22.520;2023-03-23T11:32:04;18.20;99.90
20400;DHT22;10359;53.596;22.520;2023-03-23T11:34:57;18.00;99.90
20400;DHT22;10359;53.596;22.520;2023-03-23T11:37:49;17.90;99.90
20400;DHT22;10359;53.596;22.520;2023-03-23T11:40:47;18.00;99.90
20400;DHT22;10359;53.596;22.520;2023-03-23T11:43:40;18.00;99.90
20400;DHT22;10359;53.596;22.520;2023-03-23T11:46:34;18.00;99.90
20400;DHT22;10359;53.596;22.520;2023-03-23T11:49:32;18.40;99.90
20400;DHT22;10359;53.596;22.520;2023-03-23T11:52:29;18.50;99.90
20400;DHT22;10359;53.596;22.520;2023-03-23T11:55:23;18.80;99.90
20400;DHT22;10359;53.596;22.520;2023-03-23T11:58:15;19.00;99.90
20400;DHT22;10359;53.596;22.520;2023-03-23T12:01:13;19.10;99.90
20400;DHT22;10359;53.596;22.520;2023-03-23T12:04:40;19.30;99.90
20400;DHT22;10359;53.596;22.520;2023-03-23T12:07:48;19.10;99.90
20400;DHT22;10359;53.596;22.520;2023-03-23T12:10:43;19.60;99.90
20400;DHT22;10359;53.596;22.520;2023-03-23T12:13:46;19.60;99.90
20400;DHT22;10359;53.596;22.520;2023-03-23T12:17:00;19.70;99.90
20400;DHT22;10359;53.596;22.520;2023-03-23T12:20:01;19.80;99.90
20400;DHT22;10359;53.596;22.520;2023-03-23T12:23:08;19.90;99.90
20400;DHT22;10359;53.596;22.520;2023-03-23T12:26:17;20.30;99.90
20400;DHT22;10359;53.596;22.520;2023-03-23T12:29:27;20.70;99.90
20400;DHT22;10359;53.596;22.520;2023-03-23T12:32:32;20.80;99.90
20400;DHT22;10359;53.596;22.520;2023-03-23T12:35:32;21.00;99.90
20400;DHT22;10359;53.596;22.520;2023-03-23T12:38:43;20.70;99.90
20400;DHT22;10359;53.596;22.520;2023-03-23T12:41:38;20.90;99.90
20400;DHT22;10359;53.596;22.520;2023-03-23T12:44:35;21.00;99.90
20400;DHT22;10359;53.596;22.520;2023-03-23T12:47:44;20.50;99.90
20400;DHT22;10359;53.596;22.520;2023-03-23T12:50:37;20.20;99.90
20400;DHT22;10359;53.596;22.520;2023-03-23T12:53:30;20.00;99.90
20400;DHT22;10359;53.596;22.520;2023-03-23T12:56:26;19.40;99.90
20400;DHT22;10359;53.596;22.520;2023-03-23T12:59:22;19.30;99.90
20400;DHT22;10359;53.596;22.520;2023-03-23T13:02:18;19.30;99.90
20400;DHT22;10359;53.596;22.520;2023-03-23T13:05:24;19.10;99.90
20400;DHT22;10359;53.596;22.520;2023-03-23T13:08:17;19.20;99.90
20400;DHT22;10359;53.596;22.520;2023-03-23T13:11:11;19.10;99.90
20400;DHT22;10359;53.596;22.520;2023-03-23T13:14:21;19.10;99.90
20400;DHT22;10359;53.596;22.520;2023-03-23T13:17:22;19.00;99.90
20400;DHT22;10359;53.596;22.520;2023-03-23T13:20:30;19.10;99.90
20400;DHT22;10359;53.596;22.520;2023-03-23T13:23:22;19.10;99.90
20400;DHT22;10359;53.596;22.520;2023-03-23T13:26:16;18.80;99.90
20400;DHT22;10359;53.596;22.520;2023-03-23T13:29:13;18.70;99.90
20400;DHT22;10359;53.596;22.520;2023-03-23T13:32:09;18.70;99.90
20400;DHT22;10359;53.596;22.520;2023-03-23T13:35:02;18.20;99.90
20400;DHT22;10359;53.596;22.520;2023-03-23T13:37:53;18.30;99.90
20400;DHT22;10359;53.596;22.520;2023-03-23T13:40:43;18.20;99.90
20400;DHT22;10359;53.596;22.520;2023-03-23T13:43:33;18.10;99.90
20400;DHT22;10359;53.596;22.520;2023-03-23T13:46:28;17.90;99.90
20400;DHT22;10359;53.596;22.520;2023-03-23T13:49:20;17.70;99.90
20400;DHT22;10359;53.596;22.520;2023-03-23T13:52:17;17.60;99.90
20400;DHT22;10359;53.596;22.520;2023-03-23T13:55:28;17.50;99.90
20400;DHT22;10359;53.596;22.520;2023-03-23T13:58:24;17.30;99.90
20400;DHT22;10359;53.596;22.520;2023-03-23T14:01:16;17.10;99.90
20400;DHT22;10359;53.596;22.520;2023-03-23T14:04:07;17.20;99.90
20400;DHT22;10359;53.596;22.520;2023-03-23T14:07:09;17.20;99.90
20400;DHT22;10359;53.596;22.520;2023-03-23T14:10:06;17.10;99.90
20400;DHT22;10359;53.596;22.520;2023-03-23T14:12:59;16.90;99.90
20400;DHT22;10359;53.596;22.520;2023-03-23T14:16:00;16.80;99.90
20400;DHT22;10359;53.596;22.520;2023-03-23T14:18:54;16.70;99.90
20400;DHT22;10359;53.596;22.520;2023-03-23T14:21:50;16.70;99.90
20400;DHT22;10359;53.596;22.520;2023-03-23T14:24:41;16.70;99.90
20400;DHT22;10359;53.596;22.520;2023-03-23T14:27:30;16.60;99.90
20400;DHT22;10359;53.596;22.520;2023-03-23T14:30:21;16.40;99.90
20400;DHT22;10359;53.596;22.520;2023-03-23T14:33:12;16.00;99.90
20400;DHT22;10359;53.596;22.520;2023-03-23T14:36:02;15.90;99.90
20400;DHT22;10359;53.596;22.520;2023-03-23T14:39:01;15.80;99.90
20400;DHT22;10359;53.596;22.520;2023-03-23T14:41:51;15.80;99.90
20400;DHT22;10359;53.596;22.520;2023-03-23T14:44:41;15.60;99.90
20400;DHT22;10359;53.596;22.520;2023-03-23T14:47:35;15.60;99.90
20400;DHT22;10359;53.596;22.520;2023-03-23T14:50:28;15.50;99.90
20400;DHT22;10359;53.596;22.520;2023-03-23T14:53:19;15.30;99.90
20400;DHT22;10359;53.596;22.520;2023-03-23T14:56:11;15.20;99.90
20400;DHT22;10359;53.596;22.520;2023-03-23T14:59:04;15.10;99.90
20400;DHT22;10359;53.596;22.520;2023-03-23T15:01:55;15.00;99.90
20400;DHT22;10359;53.596;22.520;2023-03-23T15:04:50;14.90;99.90
20400;DHT22;10359;53.596;22.520;2023-03-23T15:07:42;14.80;99.90
20400;DHT22;10359;53.596;22.520;2023-03-23T15:10:32;14.70;99.90
20400;DHT22;10359;53.596;22.520;2023-03-23T15:13:21;14.50;99.90
20400;DHT22;10359;53.596;22.520;2023-03-23T15:16:14;14.60;99.90
20400;DHT22;10359;53.596;22.520;2023-03-23T15:19:04;14.60;99.90
20400;DHT22;10359;53.596;22.520;2023-03-23T15:21:56;14.40;99.90
20400;DHT22;10359;53.596;22.520;2023-03-23T15:24:45;14.40;99.90
20400;DHT22;10359;53.596;22.520;2023-03-23T15:27:40;14.20;99.90
20400;DHT22;10359;53.596;22.520;2023-03-23T15:30:32;14.20;99.90
20400;DHT22;10359;53.596;22.520;2023-03-23T15:33:20;14.10;99.90
20400;DHT22;10359;53.596;22.520;2023-03-23T15:36:16;14.00;99.90
20400;DHT22;10359;53.596;22.520;2023-03-23T15:39:10;13.90;99.90
20400;DHT22;10359;53.596;22.520;2023-03-23T15:42:00;13.80;99.90
20400;DHT22;10359;53.596;22.520;2023-03-23T15:48:11;13.60;99.90
20400;DHT22;10359;53.596;22.520;2023-03-23T15:51:03;13.50;99.90
20400;DHT22;10359;53.596;22.520;2023-03-23T15:53:53;13.50;99.90
20400;DHT22;10359;53.596;22.520;2023-03-23T15:56:44;13.30;99.90
20400;DHT22;10359;53.596;22.520;2023-03-23T15:59:33;13.20;1.00
20400;DHT22;10359;53.596;22.520;2023-03-23T16:02:24;13.10;1.00
20400;DHT22;10359;53.596;22.520;2023-03-23T16:05:14;13.10;1.00
20400;DHT22;10359;53.596;22.520;2023-03-23T16:08:04;13.10;1.00
20400;DHT22;10359;53.596;22.520;2023-03-23T16:10:55;12.90;1.00
20400;DHT22;10359;53.596;22.520;2023-03-23T16:13:48;12.80;1.00
20400;DHT22;10359;53.596;22.520;2023-03-23T16:16:42;12.80;1.00
20400;DHT22;10359;53.596;22.520;2023-03-23T16:19:37;12.80;1.00
20400;DHT22;10359;53.596;22.520;2023-03-23T16:22:27;12.80;1.00
20400;DHT22;10359;53.596;22.520;2023-03-23T16:25:17;12.70;1.00
20400;DHT22;10359;53.596;22.520;2023-03-23T16:28:10;12.70;1.00
20400;DHT22;10359;53.596;22.520;2023-03-23T16:31:02;12.70;1.00
20400;DHT22;10359;53.596;22.520;2023-03-23T16:33:52;12.70;1.00
20400;DHT22;10359;53.596;22.520;2023-03-23T16:36:42;12.60;1.00
20400;DHT22;10359;53.596;22.520;2023-03-23T16:39:33;12.60;1.00
20400;DHT22;10359;53.596;22.520;2023-03-23T16:42:24;12.50;1.00
20400;DHT22;10359;53.596;22.520;2023-03-23T16:45:15;12.50;1.00
20400;DHT22;10359;53.596;22.520;2023-03-23T16:48:08;12.60;1.00
20400;DHT22;10359;53.596;22.520;2023-03-23T16:50:57;12.50;1.00
20400;DHT22;10359;53.596;22.520;2023-03-23T16:53:48;12.50;1.00
20400;DHT22;10359;53.596;22.520;2023-03-23T16:56:38;12.30;1.00
20400;DHT22;10359;53.596;22.520;2023-03-23T16:59:33;12.30;1.00
20400;DHT22;10359;53.596;22.520;2023-03-23T17:02:24;12.30;1.00
20400;DHT22;10359;53.596;22.520;2023-03-23T17:05:20;12.30;1.00
20400;DHT22;10359;53.596;22.520;2023-03-23T17:08:10;12.20;1.00
20400;DHT22;10359;53.596;22.520;2023-03-23T17:11:01;12.20;1.00
20400;DHT22;10359;53.596;22.520;2023-03-23T17:13:51;12.20;1.00
20400;DHT22;10359;53.596;22.520;2023-03-23T17:16:42;12.20;1.00
20400;DHT22;10359;53.596;22.520;2023-03-23T17:19:33;12.10;1.00
20400;DHT22;10359;53.596;22.520;2023-03-23T17:22:27;12.10;1.00
20400;DHT22;10359;53.596;22.520;2023-03-23T17:25:18;12.10;1.00
20400;DHT22;10359;53.596;22.520;2023-03-23T17:28:09;12.00;1.00
20400;DHT22;10359;53.596;22.520;2023-03-23T17:30:58;12.00;1.00
20400;DHT22;10359;53.596;22.520;2023-03-23T17:33:48;11.90;1.00
20400;DHT22;10359;53.596;22.520;2023-03-23T17:36:40;11.90;1.00
20400;DHT22;10359;53.596;22.520;2023-03-23T17:39:32;11.90;1.00
20400;DHT22;10359;53.596;22.520;2023-03-23T17:42:31;11.80;1.00
20400;DHT22;10359;53.596;22.520;2023-03-23T17:45:22;11.80;1.00
20400;DHT22;10359;53.596;22.520;2023-03-23T17:48:12;11.80;1.00
20400;DHT22;10359;53.596;22.520;2023-03-23T17:51:04;11.80;1.00
20400;DHT22;10359;53.596;22.520;2023-03-23T17:53:54;11.70;1.00
20400;DHT22;10359;53.596;22.520;2023-03-23T17:56:46;11.70;1.00
20400;DHT22;10359;53.596;22.520;2023-03-23T17:59:38;11.70;1.00
20400;DHT22;10359;53.596;22.520;2023-03-23T18:02:29;11.70;1.00
20400;DHT22;10359;53.596;22.520;2023-03-23T18:05:22;11.60;1.00
20400;DHT22;10359;53.596;22.520;2023-03-23T18:08:16;11.50;1.00
20400;DHT22;10359;53.596;22.520;2023-03-23T18:11:08;11.60;1.00
20400;DHT22;10359;53.596;22.520;2023-03-23T18:14:03;11.60;1.00
20400;DHT22;10359;53.596;22.520;2023-03-23T18:16:55;11.50;1.00